Billings, New York
Current Conditions -  °F | °C
As of 12:53 AM on Sunday 26 Oct 2014 (Local Time) from KPOU Reporting Station
Scattered Clouds Scattered Clouds  
Wind Chill: 58°   Ceiling: Unl
Heat Index: 58°   Visibility: 10mi
Dew Point: 45°   Wind: 7mph
Humidity: 62%   Direction: 310°NW
Pressure: 29.55"   Gusts: NA
Location:  41.67°N, 73.76°W
Report Text: KPOU 260453Z AUTO 31006KT 10SM SCT046 SCT060 14/07 A2955 RMK AO2 SLP004 T01440072 401890011 TSNO
Loading
Personal Weather Stations






























Interactive Weather Map New forecast layout! Learn more

10-Day Weather Forecast

Advertisements
Track Severe Weather on mobile